sensor_id;sensor_type;location;lat;lon;timestamp;P1;durP1;ratioP1;P2;durP2;ratioP2
46653;SDS011;38960;51.074;17.004;2023-07-29T00:01:48;19.48;;;17.92;;
46653;SDS011;38960;51.074;17.004;2023-07-29T00:04:14;20.08;;;18.65;;
46653;SDS011;38960;51.074;17.004;2023-07-29T00:06:40;19.70;;;18.05;;
46653;SDS011;38960;51.074;17.004;2023-07-29T00:09:05;19.98;;;18.33;;
46653;SDS011;38960;51.074;17.004;2023-07-29T00:11:31;19.10;;;17.77;;
46653;SDS011;38960;51.074;17.004;2023-07-29T00:13:59;19.05;;;17.85;;
46653;SDS011;38960;51.074;17.004;2023-07-29T00:16:25;18.80;;;17.33;;
46653;SDS011;38960;51.074;17.004;2023-07-29T00:18:51;18.67;;;17.48;;
46653;SDS011;38960;51.074;17.004;2023-07-29T00:21:17;19.83;;;18.50;;
46653;SDS011;38960;51.074;17.004;2023-07-29T00:23:42;19.33;;;17.83;;
46653;SDS011;38960;51.074;17.004;2023-07-29T00:26:08;18.98;;;17.77;;
46653;SDS011;38960;51.074;17.004;2023-07-29T00:28:33;19.27;;;17.98;;
46653;SDS011;38960;51.074;17.004;2023-07-29T00:30:59;18.88;;;17.60;;
46653;SDS011;38960;51.074;17.004;2023-07-29T00:33:25;18.80;;;17.60;;
46653;SDS011;38960;51.074;17.004;2023-07-29T00:35:52;20.23;;;18.60;;
46653;SDS011;38960;51.074;17.004;2023-07-29T00:38:17;19.45;;;18.02;;
46653;SDS011;38960;51.074;17.004;2023-07-29T00:40:43;18.30;;;17.15;;
46653;SDS011;38960;51.074;17.004;2023-07-29T00:43:08;19.65;;;18.13;;
46653;SDS011;38960;51.074;17.004;2023-07-29T00:45:34;19.70;;;18.15;;
46653;SDS011;38960;51.074;17.004;2023-07-29T00:48:00;18.77;;;17.52;;
46653;SDS011;38960;51.074;17.004;2023-07-29T00:50:26;18.95;;;17.75;;
46653;SDS011;38960;51.074;17.004;2023-07-29T00:52:54;19.10;;;17.58;;
46653;SDS011;38960;51.074;17.004;2023-07-29T00:55:22;19.98;;;18.52;;
46653;SDS011;38960;51.074;17.004;2023-07-29T00:57:48;19.45;;;18.15;;
46653;SDS011;38960;51.074;17.004;2023-07-29T01:00:16;20.05;;;18.55;;
46653;SDS011;38960;51.074;17.004;2023-07-29T01:02:42;20.20;;;18.85;;
46653;SDS011;38960;51.074;17.004;2023-07-29T01:05:08;19.77;;;18.42;;
46653;SDS011;38960;51.074;17.004;2023-07-29T01:07:39;21.17;;;19.70;;
46653;SDS011;38960;51.074;17.004;2023-07-29T01:10:09;19.58;;;17.98;;
46653;SDS011;38960;51.074;17.004;2023-07-29T01:12:51;20.15;;;18.85;;
46653;SDS011;38960;51.074;17.004;2023-07-29T01:15:23;18.52;;;16.90;;
46653;SDS011;38960;51.074;17.004;2023-07-29T01:17:55;19.65;;;18.00;;
46653;SDS011;38960;51.074;17.004;2023-07-29T01:20:29;20.17;;;18.75;;
46653;SDS011;38960;51.074;17.004;2023-07-29T01:25:24;18.95;;;17.65;;
46653;SDS011;38960;51.074;17.004;2023-07-29T01:27:51;19.60;;;18.30;;
46653;SDS011;38960;51.074;17.004;2023-07-29T01:30:17;20.10;;;18.70;;
46653;SDS011;38960;51.074;17.004;2023-07-29T01:35:54;19.58;;;18.25;;
46653;SDS011;38960;51.074;17.004;2023-07-29T01:38:30;18.63;;;17.17;;
46653;SDS011;38960;51.074;17.004;2023-07-29T01:41:03;19.00;;;17.80;;
46653;SDS011;38960;51.074;17.004;2023-07-29T01:43:31;19.48;;;18.08;;
46653;SDS011;38960;51.074;17.004;2023-07-29T01:45:57;20.55;;;18.85;;
46653;SDS011;38960;51.074;17.004;2023-07-29T01:48:22;20.65;;;18.80;;
46653;SDS011;38960;51.074;17.004;2023-07-29T01:50:49;18.15;;;16.98;;
46653;SDS011;38960;51.074;17.004;2023-07-29T01:53:15;20.00;;;18.38;;
46653;SDS011;38960;51.074;17.004;2023-07-29T01:55:41;20.45;;;18.98;;
46653;SDS011;38960;51.074;17.004;2023-07-29T01:58:09;20.13;;;18.63;;
46653;SDS011;38960;51.074;17.004;2023-07-29T02:00:36;20.02;;;18.40;;
46653;SDS011;38960;51.074;17.004;2023-07-29T02:03:02;19.38;;;17.95;;
46653;SDS011;38960;51.074;17.004;2023-07-29T02:05:27;20.85;;;19.05;;
46653;SDS011;38960;51.074;17.004;2023-07-29T02:07:53;19.67;;;18.45;;
46653;SDS011;38960;51.074;17.004;2023-07-29T02:10:19;18.85;;;17.52;;
46653;SDS011;38960;51.074;17.004;2023-07-29T02:12:45;19.67;;;17.98;;
46653;SDS011;38960;51.074;17.004;2023-07-29T02:15:10;19.58;;;18.02;;
46653;SDS011;38960;51.074;17.004;2023-07-29T02:17:36;19.92;;;18.63;;
46653;SDS011;38960;51.074;17.004;2023-07-29T02:20:02;19.60;;;18.30;;
46653;SDS011;38960;51.074;17.004;2023-07-29T02:22:29;20.40;;;19.00;;
46653;SDS011;38960;51.074;17.004;2023-07-29T02:24:54;18.77;;;17.67;;
46653;SDS011;38960;51.074;17.004;2023-07-29T02:27:20;18.85;;;17.42;;
46653;SDS011;38960;51.074;17.004;2023-07-29T02:29:46;19.58;;;18.17;;
46653;SDS011;38960;51.074;17.004;2023-07-29T02:32:11;19.50;;;18.30;;
46653;SDS011;38960;51.074;17.004;2023-07-29T02:34:37;20.13;;;18.48;;
46653;SDS011;38960;51.074;17.004;2023-07-29T02:37:03;19.85;;;18.15;;
46653;SDS011;38960;51.074;17.004;2023-07-29T02:39:28;19.23;;;17.95;;
46653;SDS011;38960;51.074;17.004;2023-07-29T02:41:54;18.75;;;17.40;;
46653;SDS011;38960;51.074;17.004;2023-07-29T02:44:21;20.13;;;18.63;;
46653;SDS011;38960;51.074;17.004;2023-07-29T02:46:46;19.30;;;18.10;;
46653;SDS011;38960;51.074;17.004;2023-07-29T02:49:12;19.77;;;18.17;;
46653;SDS011;38960;51.074;17.004;2023-07-29T02:51:37;20.52;;;19.10;;
46653;SDS011;38960;51.074;17.004;2023-07-29T02:54:03;20.35;;;18.67;;
46653;SDS011;38960;51.074;17.004;2023-07-29T02:56:28;20.58;;;19.05;;
46653;SDS011;38960;51.074;17.004;2023-07-29T02:58:55;19.30;;;18.00;;
46653;SDS011;38960;51.074;17.004;2023-07-29T03:01:22;20.33;;;18.73;;
46653;SDS011;38960;51.074;17.004;2023-07-29T03:03:50;20.25;;;18.70;;
46653;SDS011;38960;51.074;17.004;2023-07-29T03:06:16;20.08;;;18.67;;
46653;SDS011;38960;51.074;17.004;2023-07-29T03:08:41;19.98;;;18.65;;
46653;SDS011;38960;51.074;17.004;2023-07-29T03:11:08;20.05;;;18.67;;
46653;SDS011;38960;51.074;17.004;2023-07-29T03:13:35;20.27;;;18.88;;
46653;SDS011;38960;51.074;17.004;2023-07-29T03:16:08;20.27;;;18.92;;
46653;SDS011;38960;51.074;17.004;2023-07-29T03:18:36;20.63;;;19.17;;
46653;SDS011;38960;51.074;17.004;2023-07-29T03:21:02;20.23;;;18.88;;
46653;SDS011;38960;51.074;17.004;2023-07-29T03:23:28;20.55;;;19.05;;
46653;SDS011;38960;51.074;17.004;2023-07-29T03:25:54;20.13;;;18.92;;
46653;SDS011;38960;51.074;17.004;2023-07-29T03:28:22;20.52;;;18.98;;
46653;SDS011;38960;51.074;17.004;2023-07-29T03:30:49;20.40;;;18.95;;
46653;SDS011;38960;51.074;17.004;2023-07-29T03:33:14;20.25;;;18.83;;
46653;SDS011;38960;51.074;17.004;2023-07-29T03:35:40;21.10;;;19.30;;
46653;SDS011;38960;51.074;17.004;2023-07-29T03:38:09;20.98;;;18.90;;
46653;SDS011;38960;51.074;17.004;2023-07-29T03:40:36;19.98;;;18.67;;
46653;SDS011;38960;51.074;17.004;2023-07-29T03:43:01;20.08;;;18.75;;
46653;SDS011;38960;51.074;17.004;2023-07-29T03:45:27;19.38;;;17.90;;
46653;SDS011;38960;51.074;17.004;2023-07-29T03:47:52;19.90;;;18.27;;
46653;SDS011;38960;51.074;17.004;2023-07-29T03:50:18;19.02;;;17.55;;
46653;SDS011;38960;51.074;17.004;2023-07-29T03:52:44;19.33;;;18.02;;
46653;SDS011;38960;51.074;17.004;2023-07-29T03:55:09;20.13;;;18.63;;
46653;SDS011;38960;51.074;17.004;2023-07-29T03:57:35;20.13;;;18.45;;
46653;SDS011;38960;51.074;17.004;2023-07-29T04:00:01;20.05;;;18.30;;
46653;SDS011;38960;51.074;17.004;2023-07-29T04:02:28;19.70;;;18.25;;
46653;SDS011;38960;51.074;17.004;2023-07-29T04:04:54;18.90;;;17.67;;
46653;SDS011;38960;51.074;17.004;2023-07-29T04:07:20;19.70;;;18.25;;
46653;SDS011;38960;51.074;17.004;2023-07-29T04:09:45;20.02;;;18.73;;
46653;SDS011;38960;51.074;17.004;2023-07-29T04:12:11;20.55;;;19.10;;
46653;SDS011;38960;51.074;17.004;2023-07-29T04:14:36;21.98;;;20.38;;
46653;SDS011;38960;51.074;17.004;2023-07-29T04:17:02;18.92;;;17.65;;
46653;SDS011;38960;51.074;17.004;2023-07-29T04:19:28;19.42;;;18.13;;
46653;SDS011;38960;51.074;17.004;2023-07-29T04:21:53;19.83;;;18.45;;
46653;SDS011;38960;51.074;17.004;2023-07-29T04:24:19;19.58;;;18.27;;
46653;SDS011;38960;51.074;17.004;2023-07-29T04:26:46;19.88;;;18.48;;
46653;SDS011;38960;51.074;17.004;2023-07-29T04:29:11;20.75;;;18.83;;
46653;SDS011;38960;51.074;17.004;2023-07-29T04:31:37;20.70;;;18.50;;
46653;SDS011;38960;51.074;17.004;2023-07-29T04:34:04;19.83;;;18.42;;
46653;SDS011;38960;51.074;17.004;2023-07-29T04:36:31;20.02;;;18.60;;
46653;SDS011;38960;51.074;17.004;2023-07-29T04:38:57;19.17;;;17.77;;
46653;SDS011;38960;51.074;17.004;2023-07-29T04:41:22;20.23;;;18.42;;
46653;SDS011;38960;51.074;17.004;2023-07-29T04:43:49;20.35;;;18.63;;
46653;SDS011;38960;51.074;17.004;2023-07-29T04:46:15;19.85;;;18.30;;
46653;SDS011;38960;51.074;17.004;2023-07-29T04:48:41;20.40;;;18.60;;
46653;SDS011;38960;51.074;17.004;2023-07-29T04:51:06;19.52;;;18.20;;
46653;SDS011;38960;51.074;17.004;2023-07-29T04:53:32;19.90;;;18.60;;
46653;SDS011;38960;51.074;17.004;2023-07-29T04:56:00;20.38;;;18.88;;
46653;SDS011;38960;51.074;17.004;2023-07-29T04:58:25;20.35;;;18.80;;
46653;SDS011;38960;51.074;17.004;2023-07-29T05:00:51;20.90;;;19.15;;
46653;SDS011;38960;51.074;17.004;2023-07-29T05:03:17;20.90;;;19.20;;
46653;SDS011;38960;51.074;17.004;2023-07-29T05:05:42;20.15;;;18.55;;
46653;SDS011;38960;51.074;17.004;2023-07-29T05:08:09;20.15;;;18.45;;
46653;SDS011;38960;51.074;17.004;2023-07-29T05:10:34;21.63;;;20.02;;
46653;SDS011;38960;51.074;17.004;2023-07-29T05:13:01;20.30;;;18.77;;
46653;SDS011;38960;51.074;17.004;2023-07-29T05:15:27;20.27;;;18.52;;
46653;SDS011;38960;51.074;17.004;2023-07-29T05:17:53;20.08;;;18.73;;
46653;SDS011;38960;51.074;17.004;2023-07-29T05:20:18;20.70;;;19.27;;
46653;SDS011;38960;51.074;17.004;2023-07-29T05:22:44;20.75;;;19.00;;
46653;SDS011;38960;51.074;17.004;2023-07-29T05:25:09;20.75;;;19.35;;
46653;SDS011;38960;51.074;17.004;2023-07-29T05:27:35;19.90;;;18.23;;
46653;SDS011;38960;51.074;17.004;2023-07-29T05:30:00;19.27;;;17.77;;
46653;SDS011;38960;51.074;17.004;2023-07-29T05:32:26;19.98;;;18.70;;
46653;SDS011;38960;51.074;17.004;2023-07-29T05:34:51;19.40;;;18.10;;
46653;SDS011;38960;51.074;17.004;2023-07-29T05:37:17;20.45;;;18.83;;
46653;SDS011;38960;51.074;17.004;2023-07-29T05:39:43;20.27;;;18.58;;
46653;SDS011;38960;51.074;17.004;2023-07-29T05:42:09;18.48;;;17.15;;
46653;SDS011;38960;51.074;17.004;2023-07-29T05:44:34;19.33;;;17.95;;
46653;SDS011;38960;51.074;17.004;2023-07-29T05:47:00;19.80;;;18.40;;
46653;SDS011;38960;51.074;17.004;2023-07-29T05:49:26;19.05;;;17.75;;
46653;SDS011;38960;51.074;17.004;2023-07-29T05:51:51;19.52;;;18.13;;
46653;SDS011;38960;51.074;17.004;2023-07-29T05:54:18;19.27;;;17.92;;
46653;SDS011;38960;51.074;17.004;2023-07-29T05:56:44;18.67;;;17.58;;
46653;SDS011;38960;51.074;17.004;2023-07-29T05:59:09;18.98;;;17.77;;
46653;SDS011;38960;51.074;17.004;2023-07-29T06:01:35;19.88;;;18.67;;
46653;SDS011;38960;51.074;17.004;2023-07-29T06:04:00;19.05;;;17.85;;
46653;SDS011;38960;51.074;17.004;2023-07-29T06:06:26;19.58;;;18.23;;
46653;SDS011;38960;51.074;17.004;2023-07-29T06:08:52;18.48;;;17.27;;
46653;SDS011;38960;51.074;17.004;2023-07-29T06:11:17;19.00;;;17.80;;
46653;SDS011;38960;51.074;17.004;2023-07-29T06:13:43;18.65;;;17.52;;
46653;SDS011;38960;51.074;17.004;2023-07-29T06:16:08;19.20;;;18.00;;
46653;SDS011;38960;51.074;17.004;2023-07-29T06:18:36;19.30;;;18.10;;
46653;SDS011;38960;51.074;17.004;2023-07-29T06:21:01;18.73;;;17.52;;
46653;SDS011;38960;51.074;17.004;2023-07-29T06:23:27;19.38;;;18.23;;
46653;SDS011;38960;51.074;17.004;2023-07-29T06:25:52;18.90;;;17.58;;
46653;SDS011;38960;51.074;17.004;2023-07-29T06:28:18;20.00;;;18.70;;
46653;SDS011;38960;51.074;17.004;2023-07-29T06:30:44;17.60;;;16.50;;
46653;SDS011;38960;51.074;17.004;2023-07-29T06:33:10;18.13;;;16.98;;
46653;SDS011;38960;51.074;17.004;2023-07-29T06:35:35;18.52;;;17.38;;
46653;SDS011;38960;51.074;17.004;2023-07-29T06:38:00;19.05;;;17.90;;
46653;SDS011;38960;51.074;17.004;2023-07-29T06:40:26;17.80;;;16.70;;
46653;SDS011;38960;51.074;17.004;2023-07-29T06:42:51;18.20;;;17.10;;
46653;SDS011;38960;51.074;17.004;2023-07-29T06:45:17;18.02;;;17.02;;
46653;SDS011;38960;51.074;17.004;2023-07-29T06:47:43;17.50;;;16.50;;
46653;SDS011;38960;51.074;17.004;2023-07-29T06:50:08;19.08;;;17.88;;
46653;SDS011;38960;51.074;17.004;2023-07-29T06:52:34;18.63;;;17.45;;
46653;SDS011;38960;51.074;17.004;2023-07-29T06:55:02;19.00;;;17.90;;
46653;SDS011;38960;51.074;17.004;2023-07-29T06:57:27;19.65;;;18.33;;
46653;SDS011;38960;51.074;17.004;2023-07-29T06:59:53;19.52;;;18.33;;
46653;SDS011;38960;51.074;17.004;2023-07-29T07:02:18;18.48;;;17.38;;
46653;SDS011;38960;51.074;17.004;2023-07-29T07:04:43;18.13;;;17.13;;
46653;SDS011;38960;51.074;17.004;2023-07-29T07:07:09;18.13;;;17.13;;
46653;SDS011;38960;51.074;17.004;2023-07-29T07:09:35;18.90;;;17.70;;
46653;SDS011;38960;51.074;17.004;2023-07-29T07:12:00;18.17;;;16.98;;
46653;SDS011;38960;51.074;17.004;2023-07-29T07:14:25;18.52;;;17.42;;
46653;SDS011;38960;51.074;17.004;2023-07-29T07:16:51;17.60;;;16.50;;
46653;SDS011;38960;51.074;17.004;2023-07-29T07:19:17;18.50;;;17.00;;
46653;SDS011;38960;51.074;17.004;2023-07-29T07:21:42;18.65;;;17.55;;
46653;SDS011;38960;51.074;17.004;2023-07-29T07:24:08;18.10;;;17.00;;
46653;SDS011;38960;51.074;17.004;2023-07-29T07:26:33;18.10;;;17.10;;
46653;SDS011;38960;51.074;17.004;2023-07-29T07:28:59;18.67;;;17.27;;
46653;SDS011;38960;51.074;17.004;2023-07-29T07:31:24;19.25;;;18.13;;
46653;SDS011;38960;51.074;17.004;2023-07-29T07:33:50;19.50;;;18.13;;
46653;SDS011;38960;51.074;17.004;2023-07-29T07:36:16;20.00;;;18.70;;
46653;SDS011;38960;51.074;17.004;2023-07-29T07:38:41;21.33;;;19.92;;
46653;SDS011;38960;51.074;17.004;2023-07-29T07:41:06;21.58;;;20.25;;
46653;SDS011;38960;51.074;17.004;2023-07-29T07:43:32;21.58;;;20.17;;
46653;SDS011;38960;51.074;17.004;2023-07-29T07:45:58;20.45;;;19.00;;
46653;SDS011;38960;51.074;17.004;2023-07-29T07:50:50;22.53;;;21.13;;
46653;SDS011;38960;51.074;17.004;2023-07-29T07:53:16;23.55;;;22.17;;
46653;SDS011;38960;51.074;17.004;2023-07-29T07:55:42;23.35;;;21.85;;
46653;SDS011;38960;51.074;17.004;2023-07-29T07:58:07;21.58;;;20.17;;
46653;SDS011;38960;51.074;17.004;2023-07-29T08:00:33;20.70;;;19.45;;
46653;SDS011;38960;51.074;17.004;2023-07-29T08:02:58;20.85;;;19.65;;
46653;SDS011;38960;51.074;17.004;2023-07-29T08:05:24;19.17;;;18.08;;
46653;SDS011;38960;51.074;17.004;2023-07-29T08:07:49;18.98;;;17.77;;
46653;SDS011;38960;51.074;17.004;2023-07-29T08:10:15;19.27;;;17.98;;
46653;SDS011;38960;51.074;17.004;2023-07-29T08:12:40;21.00;;;19.80;;
46653;SDS011;38960;51.074;17.004;2023-07-29T08:15:06;20.48;;;19.27;;
46653;SDS011;38960;51.074;17.004;2023-07-29T08:17:32;20.65;;;19.45;;
46653;SDS011;38960;51.074;17.004;2023-07-29T08:19:58;18.85;;;17.73;;
46653;SDS011;38960;51.074;17.004;2023-07-29T08:22:23;18.02;;;16.92;;
46653;SDS011;38960;51.074;17.004;2023-07-29T08:24:49;18.73;;;17.63;;
46653;SDS011;38960;51.074;17.004;2023-07-29T08:27:14;18.05;;;17.05;;
46653;SDS011;38960;51.074;17.004;2023-07-29T08:29:40;18.95;;;17.75;;
46653;SDS011;38960;51.074;17.004;2023-07-29T08:32:05;19.58;;;18.27;;
46653;SDS011;38960;51.074;17.004;2023-07-29T08:34:31;18.50;;;17.33;;
46653;SDS011;38960;51.074;17.004;2023-07-29T08:36:56;18.45;;;17.40;;
46653;SDS011;38960;51.074;17.004;2023-07-29T08:39:22;18.40;;;17.25;;
46653;SDS011;38960;51.074;17.004;2023-07-29T08:44:23;18.58;;;17.38;;
46653;SDS011;38960;51.074;17.004;2023-07-29T08:46:51;18.45;;;17.25;;
46653;SDS011;38960;51.074;17.004;2023-07-29T08:49:19;17.63;;;16.52;;
46653;SDS011;38960;51.074;17.004;2023-07-29T08:51:47;17.48;;;16.48;;
46653;SDS011;38960;51.074;17.004;2023-07-29T08:54:14;19.17;;;18.00;;
46653;SDS011;38960;51.074;17.004;2023-07-29T08:56:40;18.90;;;17.67;;
46653;SDS011;38960;51.074;17.004;2023-07-29T08:59:07;18.98;;;17.67;;
46653;SDS011;38960;51.074;17.004;2023-07-29T09:01:33;18.77;;;17.67;;
46653;SDS011;38960;51.074;17.004;2023-07-29T09:03:59;18.65;;;17.55;;
46653;SDS011;38960;51.074;17.004;2023-07-29T09:06:25;18.15;;;17.15;;
46653;SDS011;38960;51.074;17.004;2023-07-29T09:08:53;18.70;;;17.63;;
46653;SDS011;38960;51.074;17.004;2023-07-29T09:11:19;18.40;;;17.33;;
46653;SDS011;38960;51.074;17.004;2023-07-29T09:13:45;18.67;;;17.58;;
46653;SDS011;38960;51.074;17.004;2023-07-29T09:16:11;19.20;;;18.08;;
46653;SDS011;38960;51.074;17.004;2023-07-29T09:18:37;18.30;;;17.20;;
46653;SDS011;38960;51.074;17.004;2023-07-29T09:21:03;18.70;;;17.60;;
46653;SDS011;38960;51.074;17.004;2023-07-29T09:23:37;17.45;;;16.45;;
46653;SDS011;38960;51.074;17.004;2023-07-29T09:26:04;17.55;;;16.45;;
46653;SDS011;38960;51.074;17.004;2023-07-29T09:28:33;17.70;;;16.70;;
46653;SDS011;38960;51.074;17.004;2023-07-29T09:31:03;18.73;;;17.63;;
46653;SDS011;38960;51.074;17.004;2023-07-29T09:33:29;17.80;;;16.70;;
46653;SDS011;38960;51.074;17.004;2023-07-29T09:35:56;18.30;;;17.10;;
46653;SDS011;38960;51.074;17.004;2023-07-29T09:38:28;18.02;;;16.67;;
46653;SDS011;38960;51.074;17.004;2023-07-29T09:40:54;17.27;;;16.33;;
46653;SDS011;38960;51.074;17.004;2023-07-29T09:43:21;17.38;;;16.27;;
46653;SDS011;38960;51.074;17.004;2023-07-29T09:45:51;17.73;;;16.73;;
46653;SDS011;38960;51.074;17.004;2023-07-29T09:48:17;17.67;;;16.67;;
46653;SDS011;38960;51.074;17.004;2023-07-29T09:50:47;17.23;;;16.33;;
46653;SDS011;38960;51.074;17.004;2023-07-29T09:53:13;18.02;;;17.02;;
46653;SDS011;38960;51.074;17.004;2023-07-29T09:55:39;18.33;;;17.13;;
46653;SDS011;38960;51.074;17.004;2023-07-29T09:58:05;18.35;;;17.20;;
46653;SDS011;38960;51.074;17.004;2023-07-29T10:00:33;18.30;;;17.05;;
46653;SDS011;38960;51.074;17.004;2023-07-29T10:02:59;18.30;;;17.25;;
46653;SDS011;38960;51.074;17.004;2023-07-29T10:05:26;18.85;;;17.75;;
46653;SDS011;38960;51.074;17.004;2023-07-29T10:07:53;18.38;;;17.27;;
46653;SDS011;38960;51.074;17.004;2023-07-29T10:10:19;18.40;;;17.23;;
46653;SDS011;38960;51.074;17.004;2023-07-29T10:12:45;18.05;;;17.05;;
46653;SDS011;38960;51.074;17.004;2023-07-29T10:15:11;18.40;;;17.30;;
46653;SDS011;38960;51.074;17.004;2023-07-29T10:17:37;18.92;;;17.77;;
46653;SDS011;38960;51.074;17.004;2023-07-29T10:20:04;18.80;;;17.70;;
46653;SDS011;38960;51.074;17.004;2023-07-29T10:22:36;18.75;;;17.55;;
46653;SDS011;38960;51.074;17.004;2023-07-29T10:25:10;18.33;;;17.23;;
46653;SDS011;38960;51.074;17.004;2023-07-29T10:27:42;18.83;;;17.63;;
46653;SDS011;38960;51.074;17.004;2023-07-29T10:30:28;18.97;;;17.77;;
46653;SDS011;38960;51.074;17.004;2023-07-29T10:32:54;18.60;;;17.38;;
46653;SDS011;38960;51.074;17.004;2023-07-29T10:35:23;20.38;;;18.42;;
46653;SDS011;38960;51.074;17.004;2023-07-29T10:37:50;18.70;;;17.45;;
46653;SDS011;38960;51.074;17.004;2023-07-29T10:40:17;18.33;;;17.13;;
46653;SDS011;38960;51.074;17.004;2023-07-29T10:43:01;18.85;;;17.75;;
46653;SDS011;38960;51.074;17.004;2023-07-29T10:45:36;18.42;;;17.27;;
46653;SDS011;38960;51.074;17.004;2023-07-29T10:48:08;18.48;;;17.30;;
46653;SDS011;38960;51.074;17.004;2023-07-29T10:50:36;18.52;;;17.42;;
46653;SDS011;38960;51.074;17.004;2023-07-29T10:53:01;18.38;;;17.27;;
46653;SDS011;38960;51.074;17.004;2023-07-29T10:55:28;17.65;;;16.65;;
46653;SDS011;38960;51.074;17.004;2023-07-29T11:00:41;18.50;;;17.40;;
46653;SDS011;38960;51.074;17.004;2023-07-29T11:03:07;18.45;;;17.25;;
46653;SDS011;38960;51.074;17.004;2023-07-29T11:05:43;18.05;;;16.95;;
46653;SDS011;38960;51.074;17.004;2023-07-29T11:11:03;18.55;;;17.33;;
46653;SDS011;38960;51.074;17.004;2023-07-29T11:13:33;19.20;;;17.67;;
46653;SDS011;38960;51.074;17.004;2023-07-29T11:16:01;18.23;;;16.95;;
46653;SDS011;38960;51.074;17.004;2023-07-29T11:18:28;18.38;;;17.27;;
46653;SDS011;38960;51.074;17.004;2023-07-29T11:20:55;18.65;;;17.55;;
46653;SDS011;38960;51.074;17.004;2023-07-29T11:23:26;17.88;;;16.85;;
46653;SDS011;38960;51.074;17.004;2023-07-29T11:26:00;17.98;;;16.80;;
46653;SDS011;38960;51.074;17.004;2023-07-29T11:28:26;18.25;;;17.15;;
46653;SDS011;38960;51.074;17.004;2023-07-29T11:30:56;18.15;;;17.05;;
46653;SDS011;38960;51.074;17.004;2023-07-29T11:33:23;18.70;;;17.60;;
46653;SDS011;38960;51.074;17.004;2023-07-29T11:35:50;18.60;;;17.30;;
46653;SDS011;38960;51.074;17.004;2023-07-29T11:38:16;18.67;;;17.38;;
46653;SDS011;38960;51.074;17.004;2023-07-29T11:40:42;18.85;;;17.65;;
46653;SDS011;38960;51.074;17.004;2023-07-29T11:43:08;18.30;;;17.20;;
46653;SDS011;38960;51.074;17.004;2023-07-29T11:45:34;17.98;;;16.95;;
46653;SDS011;38960;51.074;17.004;2023-07-29T11:48:02;18.60;;;17.50;;
46653;SDS011;38960;51.074;17.004;2023-07-29T11:50:28;18.40;;;17.27;;
46653;SDS011;38960;51.074;17.004;2023-07-29T11:52:53;17.77;;;16.73;;
46653;SDS011;38960;51.074;17.004;2023-07-29T11:55:19;17.48;;;16.45;;
46653;SDS011;38960;51.074;17.004;2023-07-29T11:57:45;18.30;;;17.10;;
46653;SDS011;38960;51.074;17.004;2023-07-29T12:00:13;18.40;;;17.30;;
46653;SDS011;38960;51.074;17.004;2023-07-29T12:02:42;17.83;;;16.83;;
46653;SDS011;38960;51.074;17.004;2023-07-29T12:05:11;17.98;;;16.65;;
46653;SDS011;38960;51.074;17.004;2023-07-29T12:07:38;17.50;;;16.50;;
46653;SDS011;38960;51.074;17.004;2023-07-29T12:10:04;17.45;;;16.40;;
46653;SDS011;38960;51.074;17.004;2023-07-29T12:12:30;17.58;;;16.48;;
46653;SDS011;38960;51.074;17.004;2023-07-29T12:14:56;17.35;;;16.35;;
46653;SDS011;38960;51.074;17.004;2023-07-29T12:17:21;17.70;;;16.60;;
46653;SDS011;38960;51.074;17.004;2023-07-29T12:19:47;17.95;;;16.90;;
46653;SDS011;38960;51.074;17.004;2023-07-29T12:22:17;17.70;;;16.60;;
46653;SDS011;38960;51.074;17.004;2023-07-29T12:24:44;18.75;;;17.50;;
46653;SDS011;38960;51.074;17.004;2023-07-29T12:27:10;17.25;;;16.15;;
46653;SDS011;38960;51.074;17.004;2023-07-29T12:29:40;17.25;;;16.25;;
46653;SDS011;38960;51.074;17.004;2023-07-29T12:32:07;17.20;;;16.10;;
46653;SDS011;38960;51.074;17.004;2023-07-29T12:34:32;18.35;;;17.00;;
46653;SDS011;38960;51.074;17.004;2023-07-29T12:36:58;17.30;;;16.30;;
46653;SDS011;38960;51.074;17.004;2023-07-29T12:39:28;17.05;;;16.05;;
46653;SDS011;38960;51.074;17.004;2023-07-29T12:41:56;17.88;;;16.77;;
46653;SDS011;38960;51.074;17.004;2023-07-29T12:44:23;18.88;;;17.60;;
46653;SDS011;38960;51.074;17.004;2023-07-29T12:46:49;18.42;;;17.23;;
46653;SDS011;38960;51.074;17.004;2023-07-29T12:49:15;17.30;;;16.30;;
46653;SDS011;38960;51.074;17.004;2023-07-29T12:51:41;16.95;;;15.95;;
46653;SDS011;38960;51.074;17.004;2023-07-29T12:54:06;17.63;;;16.27;;
46653;SDS011;38960;51.074;17.004;2023-07-29T12:56:32;17.70;;;16.60;;
46653;SDS011;38960;51.074;17.004;2023-07-29T12:58:58;17.52;;;16.52;;
46653;SDS011;38960;51.074;17.004;2023-07-29T13:01:24;17.65;;;16.65;;
46653;SDS011;38960;51.074;17.004;2023-07-29T13:03:50;19.30;;;17.95;;
46653;SDS011;38960;51.074;17.004;2023-07-29T13:06:16;17.80;;;16.70;;
46653;SDS011;38960;51.074;17.004;2023-07-29T13:08:42;17.60;;;16.40;;
46653;SDS011;38960;51.074;17.004;2023-07-29T13:11:08;17.67;;;16.67;;
46653;SDS011;38960;51.074;17.004;2023-07-29T13:13:33;18.25;;;17.15;;
46653;SDS011;38960;51.074;17.004;2023-07-29T13:15:59;18.35;;;17.17;;
46653;SDS011;38960;51.074;17.004;2023-07-29T13:18:26;17.98;;;16.88;;
46653;SDS011;38960;51.074;17.004;2023-07-29T13:20:51;17.17;;;16.17;;
46653;SDS011;38960;51.074;17.004;2023-07-29T13:23:17;18.20;;;16.90;;
46653;SDS011;38960;51.074;17.004;2023-07-29T13:25:42;17.50;;;16.40;;
46653;SDS011;38960;51.074;17.004;2023-07-29T13:28:11;19.92;;;18.73;;
46653;SDS011;38960;51.074;17.004;2023-07-29T13:30:40;19.67;;;18.58;;
46653;SDS011;38960;51.074;17.004;2023-07-29T13:33:08;17.67;;;16.67;;
46653;SDS011;38960;51.074;17.004;2023-07-29T13:35:34;17.75;;;16.75;;
46653;SDS011;38960;51.074;17.004;2023-07-29T13:38:00;18.20;;;16.95;;
46653;SDS011;38960;51.074;17.004;2023-07-29T13:40:26;17.80;;;16.73;;
46653;SDS011;38960;51.074;17.004;2023-07-29T13:42:51;18.65;;;17.48;;
46653;SDS011;38960;51.074;17.004;2023-07-29T13:45:17;18.40;;;17.23;;
46653;SDS011;38960;51.074;17.004;2023-07-29T13:47:43;17.60;;;16.60;;
46653;SDS011;38960;51.074;17.004;2023-07-29T13:50:09;17.52;;;16.52;;
46653;SDS011;38960;51.074;17.004;2023-07-29T13:52:35;17.38;;;16.38;;
46653;SDS011;38960;51.074;17.004;2023-07-29T13:55:01;18.33;;;17.10;;
46653;SDS011;38960;51.074;17.004;2023-07-29T13:57:27;17.15;;;15.77;;
46653;SDS011;38960;51.074;17.004;2023-07-29T13:59:53;18.10;;;16.90;;
46653;SDS011;38960;51.074;17.004;2023-07-29T14:02:18;17.17;;;16.15;;
46653;SDS011;38960;51.074;17.004;2023-07-29T14:04:44;18.23;;;17.13;;
46653;SDS011;38960;51.074;17.004;2023-07-29T14:07:09;17.90;;;16.90;;
46653;SDS011;38960;51.074;17.004;2023-07-29T14:09:34;17.45;;;16.45;;
46653;SDS011;38960;51.074;17.004;2023-07-29T14:12:00;18.02;;;16.83;;
46653;SDS011;38960;51.074;17.004;2023-07-29T14:14:26;17.75;;;16.70;;
46653;SDS011;38960;51.074;17.004;2023-07-29T14:16:51;18.35;;;17.10;;
46653;SDS011;38960;51.074;17.004;2023-07-29T14:19:17;17.80;;;16.77;;
46653;SDS011;38960;51.074;17.004;2023-07-29T14:21:43;17.60;;;16.45;;